sensor_id;sensor_type;location;lat;lon;timestamp;P1;durP1;ratioP1;P2;durP2;ratioP2
74867;SDS011;63419;42.262;12.210;2022-11-22T00:02:20;10.40;;;5.28;;
74867;SDS011;63419;42.262;12.210;2022-11-22T00:04:53;9.23;;;3.95;;
74867;SDS011;63419;42.262;12.210;2022-11-22T00:07:31;8.07;;;3.45;;
74867;SDS011;63419;42.262;12.210;2022-11-22T00:10:08;10.20;;;4.00;;
74867;SDS011;63419;42.262;12.210;2022-11-22T00:12:53;12.80;;;4.30;;
74867;SDS011;63419;42.262;12.210;2022-11-22T00:15:28;10.10;;;3.17;;
74867;SDS011;63419;42.262;12.210;2022-11-22T00:18:31;7.95;;;3.60;;
74867;SDS011;63419;42.262;12.210;2022-11-22T00:21:04;8.95;;;3.42;;
74867;SDS011;63419;42.262;12.210;2022-11-22T00:24:00;12.43;;;3.90;;
74867;SDS011;63419;42.262;12.210;2022-11-22T00:26:27;10.25;;;3.40;;
74867;SDS011;63419;42.262;12.210;2022-11-22T00:29:06;6.10;;;2.58;;
74867;SDS011;63419;42.262;12.210;2022-11-22T00:31:46;7.47;;;2.78;;
74867;SDS011;63419;42.262;12.210;2022-11-22T00:34:18;11.70;;;3.10;;
74867;SDS011;63419;42.262;12.210;2022-11-22T00:36:50;6.47;;;2.17;;
74867;SDS011;63419;42.262;12.210;2022-11-22T00:39:29;13.35;;;3.58;;
74867;SDS011;63419;42.262;12.210;2022-11-22T00:41:59;9.55;;;3.83;;
74867;SDS011;63419;42.262;12.210;2022-11-22T00:47:21;11.15;;;2.97;;
74867;SDS011;63419;42.262;12.210;2022-11-22T00:49:53;9.48;;;3.30;;
74867;SDS011;63419;42.262;12.210;2022-11-22T00:52:34;6.85;;;3.15;;
74867;SDS011;63419;42.262;12.210;2022-11-22T00:55:12;8.40;;;2.47;;
74867;SDS011;63419;42.262;12.210;2022-11-22T01:00:38;7.89;;;2.94;;
74867;SDS011;63419;42.262;12.210;2022-11-22T01:03:24;7.25;;;2.17;;
74867;SDS011;63419;42.262;12.210;2022-11-22T01:06:09;7.35;;;2.58;;
74867;SDS011;63419;42.262;12.210;2022-11-22T01:08:53;6.20;;;1.77;;
74867;SDS011;63419;42.262;12.210;2022-11-22T01:11:33;13.63;;;2.78;;
74867;SDS011;63419;42.262;12.210;2022-11-22T01:16:41;8.77;;;3.17;;
74867;SDS011;63419;42.262;12.210;2022-11-22T01:19:17;12.05;;;2.70;;
74867;SDS011;63419;42.262;12.210;2022-11-22T01:21:46;9.13;;;2.28;;
74867;SDS011;63419;42.262;12.210;2022-11-22T01:24:20;4.40;;;1.60;;
74867;SDS011;63419;42.262;12.210;2022-11-22T01:26:50;5.65;;;1.42;;
74867;SDS011;63419;42.262;12.210;2022-11-22T01:29:23;3.47;;;1.00;;
74867;SDS011;63419;42.262;12.210;2022-11-22T01:31:57;5.50;;;0.95;;
74867;SDS011;63419;42.262;12.210;2022-11-22T01:34:32;5.68;;;0.90;;
74867;SDS011;63419;42.262;12.210;2022-11-22T01:37:05;2.63;;;0.60;;
74867;SDS011;63419;42.262;12.210;2022-11-22T01:39:55;5.38;;;1.20;;
74867;SDS011;63419;42.262;12.210;2022-11-22T01:42:42;5.63;;;0.90;;
74867;SDS011;63419;42.262;12.210;2022-11-22T01:45:36;4.00;;;0.80;;
74867;SDS011;63419;42.262;12.210;2022-11-22T01:51:41;3.72;;;0.80;;
74867;SDS011;63419;42.262;12.210;2022-11-22T01:54:36;4.03;;;0.95;;
74867;SDS011;63419;42.262;12.210;2022-11-22T01:57:24;3.42;;;1.02;;
74867;SDS011;63419;42.262;12.210;2022-11-22T02:00:06;4.88;;;1.60;;
74867;SDS011;63419;42.262;12.210;2022-11-22T02:02:51;4.68;;;1.73;;
74867;SDS011;63419;42.262;12.210;2022-11-22T02:05:36;5.40;;;1.70;;
74867;SDS011;63419;42.262;12.210;2022-11-22T02:08:18;6.85;;;2.28;;
74867;SDS011;63419;42.262;12.210;2022-11-22T02:11:27;8.20;;;2.55;;
74867;SDS011;63419;42.262;12.210;2022-11-22T02:14:07;7.05;;;2.10;;
74867;SDS011;63419;42.262;12.210;2022-11-22T02:16:44;6.22;;;2.05;;
74867;SDS011;63419;42.262;12.210;2022-11-22T02:19:32;5.93;;;1.65;;
74867;SDS011;63419;42.262;12.210;2022-11-22T02:25:48;6.00;;;1.65;;
74867;SDS011;63419;42.262;12.210;2022-11-22T02:28:28;5.75;;;1.92;;
74867;SDS011;63419;42.262;12.210;2022-11-22T02:31:21;8.90;;;2.20;;
74867;SDS011;63419;42.262;12.210;2022-11-22T02:34:15;7.28;;;2.08;;
74867;SDS011;63419;42.262;12.210;2022-11-22T02:37:13;6.88;;;2.20;;
74867;SDS011;63419;42.262;12.210;2022-11-22T02:39:55;4.63;;;1.63;;
74867;SDS011;63419;42.262;12.210;2022-11-22T02:42:35;3.88;;;1.23;;
74867;SDS011;63419;42.262;12.210;2022-11-22T02:45:09;4.90;;;1.83;;
74867;SDS011;63419;42.262;12.210;2022-11-22T02:50:20;4.10;;;1.25;;
74867;SDS011;63419;42.262;12.210;2022-11-22T02:53:09;4.43;;;1.23;;
74867;SDS011;63419;42.262;12.210;2022-11-22T02:55:42;5.45;;;1.33;;
74867;SDS011;63419;42.262;12.210;2022-11-22T02:58:19;5.57;;;1.42;;
74867;SDS011;63419;42.262;12.210;2022-11-22T03:00:54;3.47;;;1.17;;
74867;SDS011;63419;42.262;12.210;2022-11-22T03:03:37;1.85;;;0.45;;
74867;SDS011;63419;42.262;12.210;2022-11-22T03:06:09;4.82;;;0.60;;
74867;SDS011;63419;42.262;12.210;2022-11-22T03:08:58;4.47;;;1.30;;
74867;SDS011;63419;42.262;12.210;2022-11-22T03:11:29;3.38;;;0.90;;
74867;SDS011;63419;42.262;12.210;2022-11-22T03:14:00;2.88;;;0.70;;
74867;SDS011;63419;42.262;12.210;2022-11-22T03:16:29;2.30;;;0.43;;
74867;SDS011;63419;42.262;12.210;2022-11-22T03:18:59;2.30;;;0.50;;
74867;SDS011;63419;42.262;12.210;2022-11-22T03:21:40;2.28;;;0.50;;
74867;SDS011;63419;42.262;12.210;2022-11-22T03:24:21;3.08;;;0.73;;
74867;SDS011;63419;42.262;12.210;2022-11-22T03:27:11;2.15;;;0.40;;
74867;SDS011;63419;42.262;12.210;2022-11-22T03:29:40;3.85;;;0.63;;
74867;SDS011;63419;42.262;12.210;2022-11-22T03:32:39;2.42;;;0.45;;
74867;SDS011;63419;42.262;12.210;2022-11-22T03:35:25;2.35;;;0.50;;
74867;SDS011;63419;42.262;12.210;2022-11-22T03:40:30;3.75;;;0.60;;
74867;SDS011;63419;42.262;12.210;2022-11-22T03:43:04;3.45;;;0.80;;
74867;SDS011;63419;42.262;12.210;2022-11-22T03:45:34;2.03;;;0.65;;
74867;SDS011;63419;42.262;12.210;2022-11-22T03:48:01;1.48;;;0.20;;
74867;SDS011;63419;42.262;12.210;2022-11-22T03:50:32;2.05;;;0.32;;
74867;SDS011;63419;42.262;12.210;2022-11-22T03:53:01;2.40;;;0.73;;
74867;SDS011;63419;42.262;12.210;2022-11-22T03:55:37;1.23;;;0.22;;
74867;SDS011;63419;42.262;12.210;2022-11-22T03:58:19;1.55;;;0.30;;
74867;SDS011;63419;42.262;12.210;2022-11-22T04:00:59;1.55;;;0.38;;
74867;SDS011;63419;42.262;12.210;2022-11-22T04:03:34;1.30;;;0.43;;
74867;SDS011;63419;42.262;12.210;2022-11-22T04:06:02;2.28;;;0.40;;
74867;SDS011;63419;42.262;12.210;2022-11-22T04:08:33;2.30;;;0.57;;
74867;SDS011;63419;42.262;12.210;2022-11-22T04:11:13;1.85;;;0.45;;
74867;SDS011;63419;42.262;12.210;2022-11-22T04:14:01;2.25;;;0.52;;
74867;SDS011;63419;42.262;12.210;2022-11-22T04:17:02;2.78;;;0.50;;
74867;SDS011;63419;42.262;12.210;2022-11-22T04:19:31;2.75;;;0.55;;
74867;SDS011;63419;42.262;12.210;2022-11-22T04:22:36;14.38;;;0.70;;
74867;SDS011;63419;42.262;12.210;2022-11-22T04:25:08;2.08;;;0.43;;
74867;SDS011;63419;42.262;12.210;2022-11-22T04:27:46;2.45;;;0.40;;
74867;SDS011;63419;42.262;12.210;2022-11-22T04:30:22;2.03;;;0.40;;
74867;SDS011;63419;42.262;12.210;2022-11-22T04:33:16;1.55;;;0.20;;
74867;SDS011;63419;42.262;12.210;2022-11-22T04:35:45;2.20;;;0.22;;
74867;SDS011;63419;42.262;12.210;2022-11-22T04:38:24;3.40;;;0.40;;
74867;SDS011;63419;42.262;12.210;2022-11-22T04:40:54;3.63;;;0.38;;
74867;SDS011;63419;42.262;12.210;2022-11-22T04:43:26;5.68;;;0.60;;
74867;SDS011;63419;42.262;12.210;2022-11-22T04:46:20;2.58;;;0.45;;
74867;SDS011;63419;42.262;12.210;2022-11-22T04:48:53;5.03;;;0.50;;
74867;SDS011;63419;42.262;12.210;2022-11-22T04:51:26;16.75;;;1.35;;
74867;SDS011;63419;42.262;12.210;2022-11-22T04:54:23;13.82;;;1.85;;
74867;SDS011;63419;42.262;12.210;2022-11-22T04:56:59;17.00;;;1.83;;
74867;SDS011;63419;42.262;12.210;2022-11-22T04:59:44;16.65;;;1.88;;
74867;SDS011;63419;42.262;12.210;2022-11-22T05:02:12;24.58;;;2.30;;
74867;SDS011;63419;42.262;12.210;2022-11-22T05:04:54;15.75;;;1.52;;
74867;SDS011;63419;42.262;12.210;2022-11-22T05:07:26;18.65;;;1.70;;
74867;SDS011;63419;42.262;12.210;2022-11-22T05:10:29;7.88;;;1.23;;
74867;SDS011;63419;42.262;12.210;2022-11-22T05:13:33;14.15;;;1.60;;
74867;SDS011;63419;42.262;12.210;2022-11-22T05:16:11;13.82;;;1.45;;
74867;SDS011;63419;42.262;12.210;2022-11-22T05:18:48;15.18;;;2.20;;
74867;SDS011;63419;42.262;12.210;2022-11-22T05:21:28;18.25;;;1.52;;
74867;SDS011;63419;42.262;12.210;2022-11-22T05:24:23;20.60;;;1.75;;
74867;SDS011;63419;42.262;12.210;2022-11-22T05:26:57;18.63;;;1.98;;
74867;SDS011;63419;42.262;12.210;2022-11-22T05:29:40;12.82;;;0.93;;
74867;SDS011;63419;42.262;12.210;2022-11-22T05:32:16;21.65;;;2.28;;
74867;SDS011;63419;42.262;12.210;2022-11-22T05:35:09;19.08;;;2.67;;
74867;SDS011;63419;42.262;12.210;2022-11-22T05:37:37;16.30;;;1.08;;
74867;SDS011;63419;42.262;12.210;2022-11-22T05:46:10;13.73;;;1.60;;
74867;SDS011;63419;42.262;12.210;2022-11-22T05:48:50;9.70;;;1.65;;
74867;SDS011;63419;42.262;12.210;2022-11-22T05:51:23;10.98;;;1.42;;
74867;SDS011;63419;42.262;12.210;2022-11-22T05:54:03;16.10;;;1.67;;
74867;SDS011;63419;42.262;12.210;2022-11-22T05:56:46;16.30;;;2.50;;
74867;SDS011;63419;42.262;12.210;2022-11-22T05:59:32;27.23;;;2.80;;
74867;SDS011;63419;42.262;12.210;2022-11-22T06:02:02;19.58;;;3.10;;
74867;SDS011;63419;42.262;12.210;2022-11-22T06:04:35;25.17;;;2.65;;
74867;SDS011;63419;42.262;12.210;2022-11-22T06:07:09;9.30;;;1.25;;
74867;SDS011;63419;42.262;12.210;2022-11-22T06:09:48;10.93;;;1.48;;
74867;SDS011;63419;42.262;12.210;2022-11-22T06:12:19;4.82;;;0.55;;
74867;SDS011;63419;42.262;12.210;2022-11-22T06:14:58;4.50;;;0.73;;
74867;SDS011;63419;42.262;12.210;2022-11-22T06:17:38;5.45;;;0.65;;
74867;SDS011;63419;42.262;12.210;2022-11-22T06:21:30;5.88;;;0.82;;
74867;SDS011;63419;42.262;12.210;2022-11-22T06:24:09;4.13;;;0.40;;
74867;SDS011;63419;42.262;12.210;2022-11-22T06:26:45;5.30;;;0.35;;
74867;SDS011;63419;42.262;12.210;2022-11-22T06:29:32;8.05;;;0.50;;
74867;SDS011;63419;42.262;12.210;2022-11-22T06:32:02;10.60;;;0.75;;
74867;SDS011;63419;42.262;12.210;2022-11-22T06:34:55;4.80;;;0.43;;
74867;SDS011;63419;42.262;12.210;2022-11-22T06:37:50;6.63;;;0.50;;
74867;SDS011;63419;42.262;12.210;2022-11-22T06:40:25;5.60;;;0.50;;
74867;SDS011;63419;42.262;12.210;2022-11-22T06:43:18;8.52;;;0.70;;
74867;SDS011;63419;42.262;12.210;2022-11-22T06:45:56;9.77;;;0.60;;
74867;SDS011;63419;42.262;12.210;2022-11-22T06:48:49;8.70;;;0.73;;
74867;SDS011;63419;42.262;12.210;2022-11-22T06:51:32;12.77;;;1.27;;
74867;SDS011;63419;42.262;12.210;2022-11-22T06:54:12;8.13;;;1.02;;
74867;SDS011;63419;42.262;12.210;2022-11-22T06:56:44;12.15;;;1.13;;
74867;SDS011;63419;42.262;12.210;2022-11-22T06:59:13;11.63;;;1.00;;
74867;SDS011;63419;42.262;12.210;2022-11-22T07:04:33;14.07;;;1.13;;
74867;SDS011;63419;42.262;12.210;2022-11-22T07:07:21;12.05;;;1.00;;
74867;SDS011;63419;42.262;12.210;2022-11-22T07:09:57;10.88;;;1.20;;
74867;SDS011;63419;42.262;12.210;2022-11-22T07:12:27;15.32;;;1.50;;
74867;SDS011;63419;42.262;12.210;2022-11-22T07:15:01;15.55;;;1.58;;
74867;SDS011;63419;42.262;12.210;2022-11-22T07:17:40;11.43;;;1.35;;
74867;SDS011;63419;42.262;12.210;2022-11-22T07:20:18;24.25;;;1.45;;
74867;SDS011;63419;42.262;12.210;2022-11-22T07:23:06;12.43;;;0.70;;
74867;SDS011;63419;42.262;12.210;2022-11-22T07:25:46;6.47;;;0.73;;
74867;SDS011;63419;42.262;12.210;2022-11-22T07:28:33;7.97;;;0.93;;
74867;SDS011;63419;42.262;12.210;2022-11-22T07:31:04;8.85;;;0.90;;
74867;SDS011;63419;42.262;12.210;2022-11-22T07:33:49;10.25;;;0.82;;
74867;SDS011;63419;42.262;12.210;2022-11-22T07:36:22;12.73;;;1.25;;
74867;SDS011;63419;42.262;12.210;2022-11-22T07:39:04;11.98;;;1.35;;
74867;SDS011;63419;42.262;12.210;2022-11-22T07:41:38;12.60;;;0.90;;
74867;SDS011;63419;42.262;12.210;2022-11-22T07:44:11;14.13;;;1.10;;
74867;SDS011;63419;42.262;12.210;2022-11-22T07:46:39;13.60;;;0.82;;
74867;SDS011;63419;42.262;12.210;2022-11-22T07:49:17;7.65;;;0.45;;
74867;SDS011;63419;42.262;12.210;2022-11-22T07:51:49;8.23;;;0.68;;
74867;SDS011;63419;42.262;12.210;2022-11-22T07:54:23;7.80;;;0.60;;
74867;SDS011;63419;42.262;12.210;2022-11-22T07:57:09;8.25;;;0.80;;
74867;SDS011;63419;42.262;12.210;2022-11-22T07:59:47;7.32;;;0.73;;
74867;SDS011;63419;42.262;12.210;2022-11-22T08:02:40;6.47;;;0.68;;
74867;SDS011;63419;42.262;12.210;2022-11-22T08:05:14;7.95;;;0.70;;
74867;SDS011;63419;42.262;12.210;2022-11-22T08:08:00;9.13;;;0.60;;
74867;SDS011;63419;42.262;12.210;2022-11-22T08:10:30;7.35;;;0.93;;
74867;SDS011;63419;42.262;12.210;2022-11-22T08:13:10;12.48;;;1.05;;
74867;SDS011;63419;42.262;12.210;2022-11-22T08:15:42;4.70;;;0.40;;
74867;SDS011;63419;42.262;12.210;2022-11-22T08:18:17;6.28;;;0.80;;
74867;SDS011;63419;42.262;12.210;2022-11-22T08:21:06;6.97;;;0.30;;
74867;SDS011;63419;42.262;12.210;2022-11-22T08:23:48;5.00;;;0.22;;
74867;SDS011;63419;42.262;12.210;2022-11-22T08:26:32;5.45;;;0.47;;
74867;SDS011;63419;42.262;12.210;2022-11-22T08:29:16;3.67;;;0.40;;
74867;SDS011;63419;42.262;12.210;2022-11-22T08:31:46;7.70;;;0.60;;
74867;SDS011;63419;42.262;12.210;2022-11-22T08:34:17;2.60;;;0.20;;
74867;SDS011;63419;42.262;12.210;2022-11-22T08:36:48;3.65;;;0.20;;
74867;SDS011;63419;42.262;12.210;2022-11-22T08:39:24;3.58;;;0.25;;
74867;SDS011;63419;42.262;12.210;2022-11-22T08:41:56;1.95;;;0.17;;
74867;SDS011;63419;42.262;12.210;2022-11-22T08:44:31;4.03;;;0.20;;
74867;SDS011;63419;42.262;12.210;2022-11-22T08:47:03;4.03;;;0.20;;
74867;SDS011;63419;42.262;12.210;2022-11-22T08:50:09;5.80;;;0.40;;
74867;SDS011;63419;42.262;12.210;2022-11-22T08:52:52;0.88;;;0.10;;
74867;SDS011;63419;42.262;12.210;2022-11-22T08:55:54;2.03;;;0.20;;
74867;SDS011;63419;42.262;12.210;2022-11-22T08:58:49;0.93;;;0.20;;
74867;SDS011;63419;42.262;12.210;2022-11-22T09:01:21;2.83;;;0.60;;
74867;SDS011;63419;42.262;12.210;2022-11-22T09:03:58;1.42;;;0.20;;
74867;SDS011;63419;42.262;12.210;2022-11-22T09:06:36;2.90;;;0.40;;
74867;SDS011;63419;42.262;12.210;2022-11-22T09:09:49;3.47;;;0.40;;
74867;SDS011;63419;42.262;12.210;2022-11-22T09:12:25;2.30;;;0.40;;
74867;SDS011;63419;42.262;12.210;2022-11-22T09:15:02;4.80;;;0.32;;
74867;SDS011;63419;42.262;12.210;2022-11-22T09:18:01;1.98;;;0.35;;
74867;SDS011;63419;42.262;12.210;2022-11-22T09:20:39;4.40;;;0.60;;
74867;SDS011;63419;42.262;12.210;2022-11-22T09:23:09;2.92;;;0.40;;
74867;SDS011;63419;42.262;12.210;2022-11-22T09:25:43;3.88;;;0.50;;
74867;SDS011;63419;42.262;12.210;2022-11-22T09:28:33;4.80;;;0.73;;
74867;SDS011;63419;42.262;12.210;2022-11-22T09:31:11;4.50;;;0.80;;
74867;SDS011;63419;42.262;12.210;2022-11-22T09:33:58;5.35;;;0.40;;
74867;SDS011;63419;42.262;12.210;2022-11-22T09:36:30;5.47;;;0.60;;
74867;SDS011;63419;42.262;12.210;2022-11-22T09:39:05;5.05;;;0.65;;
74867;SDS011;63419;42.262;12.210;2022-11-22T09:51:21;7.40;;;1.05;;
74867;SDS011;63419;42.262;12.210;2022-11-22T09:58:07;11.77;;;1.30;;
74867;SDS011;63419;42.262;12.210;2022-11-22T10:01:21;10.02;;;1.05;;
74867;SDS011;63419;42.262;12.210;2022-11-22T10:04:19;9.52;;;1.17;;
74867;SDS011;63419;42.262;12.210;2022-11-22T10:06:59;12.25;;;1.23;;
74867;SDS011;63419;42.262;12.210;2022-11-22T10:12:58;9.23;;;0.98;;
74867;SDS011;63419;42.262;12.210;2022-11-22T10:19:36;13.02;;;1.10;;
74867;SDS011;63419;42.262;12.210;2022-11-22T10:22:22;11.05;;;1.35;;
74867;SDS011;63419;42.262;12.210;2022-11-22T10:25:55;10.68;;;0.80;;
74867;SDS011;63419;42.262;12.210;2022-11-22T10:28:34;12.65;;;1.20;;
74867;SDS011;63419;42.262;12.210;2022-11-22T10:34:45;12.65;;;1.05;;
74867;SDS011;63419;42.262;12.210;2022-11-22T10:37:45;10.02;;;1.20;;
74867;SDS011;63419;42.262;12.210;2022-11-22T10:40:36;8.52;;;1.42;;
74867;SDS011;63419;42.262;12.210;2022-11-22T10:56:34;9.70;;;1.63;;
74867;SDS011;63419;42.262;12.210;2022-11-22T10:59:58;8.13;;;0.95;;
74867;SDS011;63419;42.262;12.210;2022-11-22T11:12:49;14.05;;;1.92;;
74867;SDS011;63419;42.262;12.210;2022-11-22T11:15:37;16.83;;;2.53;;
74867;SDS011;63419;42.262;12.210;2022-11-22T11:21:26;17.52;;;2.25;;
74867;SDS011;63419;42.262;12.210;2022-11-22T11:24:09;16.15;;;2.17;;
74867;SDS011;63419;42.262;12.210;2022-11-22T11:27:00;11.30;;;1.13;;
74867;SDS011;63419;42.262;12.210;2022-11-22T11:30:16;17.25;;;2.30;;
74867;SDS011;63419;42.262;12.210;2022-11-22T11:32:51;12.27;;;1.63;;
74867;SDS011;63419;42.262;12.210;2022-11-22T11:35:26;11.70;;;1.13;;
74867;SDS011;63419;42.262;12.210;2022-11-22T11:41:32;17.88;;;2.25;;
74867;SDS011;63419;42.262;12.210;2022-11-22T11:44:23;17.98;;;1.85;;
74867;SDS011;63419;42.262;12.210;2022-11-22T11:47:16;10.30;;;1.52;;
74867;SDS011;63419;42.262;12.210;2022-11-22T11:50:20;14.90;;;1.52;;
74867;SDS011;63419;42.262;12.210;2022-11-22T11:53:02;13.38;;;1.35;;
74867;SDS011;63419;42.262;12.210;2022-11-22T11:55:53;13.23;;;1.65;;
74867;SDS011;63419;42.262;12.210;2022-11-22T11:58:53;11.43;;;1.35;;
74867;SDS011;63419;42.262;12.210;2022-11-22T12:01:56;14.02;;;2.05;;
74867;SDS011;63419;42.262;12.210;2022-11-22T12:05:04;16.80;;;2.22;;
74867;SDS011;63419;42.262;12.210;2022-11-22T12:07:41;16.02;;;2.20;;
74867;SDS011;63419;42.262;12.210;2022-11-22T12:10:56;7.50;;;1.35;;
74867;SDS011;63419;42.262;12.210;2022-11-22T12:14:00;13.80;;;2.03;;
74867;SDS011;63419;42.262;12.210;2022-11-22T12:17:29;9.73;;;1.35;;
74867;SDS011;63419;42.262;12.210;2022-11-22T12:21:15;7.72;;;1.13;;
74867;SDS011;63419;42.262;12.210;2022-11-22T12:27:29;9.70;;;1.10;;
74867;SDS011;63419;42.262;12.210;2022-11-22T12:30:09;13.15;;;2.05;;
74867;SDS011;63419;42.262;12.210;2022-11-22T12:32:49;11.68;;;1.33;;
74867;SDS011;63419;42.262;12.210;2022-11-22T12:35:36;14.88;;;1.88;;
74867;SDS011;63419;42.262;12.210;2022-11-22T12:38:35;10.98;;;1.70;;
74867;SDS011;63419;42.262;12.210;2022-11-22T12:41:11;13.85;;;1.70;;
74867;SDS011;63419;42.262;12.210;2022-11-22T12:43:56;10.27;;;1.83;;
74867;SDS011;63419;42.262;12.210;2022-11-22T12:46:37;13.18;;;1.58;;
74867;SDS011;63419;42.262;12.210;2022-11-22T12:49:33;15.02;;;1.98;;
74867;SDS011;63419;42.262;12.210;2022-11-22T12:52:24;12.55;;;1.63;;
74867;SDS011;63419;42.262;12.210;2022-11-22T12:55:24;10.70;;;0.98;;
74867;SDS011;63419;42.262;12.210;2022-11-22T13:01:48;17.33;;;2.40;;
74867;SDS011;63419;42.262;12.210;2022-11-22T13:04:55;8.35;;;1.90;;
74867;SDS011;63419;42.262;12.210;2022-11-22T13:08:01;10.15;;;1.42;;
74867;SDS011;63419;42.262;12.210;2022-11-22T13:10:52;8.93;;;1.23;;
74867;SDS011;63419;42.262;12.210;2022-11-22T13:14:41;12.73;;;2.17;;
74867;SDS011;63419;42.262;12.210;2022-11-22T13:17:31;13.32;;;1.83;;
74867;SDS011;63419;42.262;12.210;2022-11-22T13:20:21;9.18;;;1.33;;
74867;SDS011;63419;42.262;12.210;2022-11-22T13:29:01;12.98;;;1.63;;
74867;SDS011;63419;42.262;12.210;2022-11-22T13:34:40;9.05;;;1.33;;
74867;SDS011;63419;42.262;12.210;2022-11-22T13:37:36;11.07;;;1.55;;
74867;SDS011;63419;42.262;12.210;2022-11-22T13:40:47;14.48;;;1.48;;
74867;SDS011;63419;42.262;12.210;2022-11-22T13:43:46;8.98;;;1.05;;
74867;SDS011;63419;42.262;12.210;2022-11-22T13:49:13;12.30;;;1.92;;
74867;SDS011;63419;42.262;12.210;2022-11-22T14:00:34;12.10;;;1.80;;
74867;SDS011;63419;42.262;12.210;2022-11-22T14:06:14;12.68;;;1.40;;
74867;SDS011;63419;42.262;12.210;2022-11-22T14:30:51;9.07;;;1.30;;
74867;SDS011;63419;42.262;12.210;2022-11-22T14:33:41;14.98;;;1.77;;
74867;SDS011;63419;42.262;12.210;2022-11-22T15:11:10;13.70;;;2.40;;
74867;SDS011;63419;42.262;12.210;2022-11-22T15:16:55;7.70;;;1.25;;
74867;SDS011;63419;42.262;12.210;2022-11-22T15:19:46;8.43;;;1.10;;
74867;SDS011;63419;42.262;12.210;2022-11-22T15:26:04;5.95;;;0.98;;
74867;SDS011;63419;42.262;12.210;2022-11-22T15:29:05;6.35;;;1.05;;
74867;SDS011;63419;42.262;12.210;2022-11-22T15:34:43;6.25;;;0.88;;
74867;SDS011;63419;42.262;12.210;2022-11-22T15:37:36;4.32;;;0.40;;
74867;SDS011;63419;42.262;12.210;2022-11-22T15:40:49;5.95;;;1.02;;
74867;SDS011;63419;42.262;12.210;2022-11-22T15:43:51;3.90;;;0.63;;
74867;SDS011;63419;42.262;12.210;2022-11-22T15:46:45;7.95;;;1.10;;
74867;SDS011;63419;42.262;12.210;2022-11-22T15:49:36;8.13;;;1.02;;
74867;SDS011;63419;42.262;12.210;2022-11-22T15:52:28;5.57;;;0.80;;
74867;SDS011;63419;42.262;12.210;2022-11-22T15:55:22;8.18;;;1.77;;
74867;SDS011;63419;42.262;12.210;2022-11-22T15:58:11;5.72;;;0.77;;
74867;SDS011;63419;42.262;12.210;2022-11-22T16:00:44;7.05;;;1.20;;
74867;SDS011;63419;42.262;12.210;2022-11-22T16:03:23;3.50;;;0.50;;
74867;SDS011;63419;42.262;12.210;2022-11-22T16:06:03;5.15;;;0.80;;
74867;SDS011;63419;42.262;12.210;2022-11-22T16:08:55;6.80;;;1.10;;
74867;SDS011;63419;42.262;12.210;2022-11-22T16:11:44;5.88;;;1.70;;
74867;SDS011;63419;42.262;12.210;2022-11-22T16:17:49;5.45;;;1.17;;
74867;SDS011;63419;42.262;12.210;2022-11-22T16:20:40;2.97;;;1.38;;
74867;SDS011;63419;42.262;12.210;2022-11-22T16:23:38;6.00;;;1.20;;
74867;SDS011;63419;42.262;12.210;2022-11-22T16:26:25;3.30;;;0.65;;
74867;SDS011;63419;42.262;12.210;2022-11-22T16:32:08;6.20;;;1.27;;
74867;SDS011;63419;42.262;12.210;2022-11-22T16:34:43;5.00;;;0.85;;
74867;SDS011;63419;42.262;12.210;2022-11-22T16:37:43;2.60;;;0.52;;
74867;SDS011;63419;42.262;12.210;2022-11-22T16:40:19;3.85;;;0.60;;
74867;SDS011;63419;42.262;12.210;2022-11-22T16:42:49;6.35;;;0.63;;
74867;SDS011;63419;42.262;12.210;2022-11-22T16:45:26;2.42;;;0.40;;
74867;SDS011;63419;42.262;12.210;2022-11-22T16:54:23;3.92;;;0.17;;
74867;SDS011;63419;42.262;12.210;2022-11-22T16:56:52;2.60;;;0.30;;
74867;SDS011;63419;42.262;12.210;2022-11-22T16:59:42;2.65;;;0.30;;
74867;SDS011;63419;42.262;12.210;2022-11-22T17:02:22;1.05;;;0.20;;
74867;SDS011;63419;42.262;12.210;2022-11-22T17:04:53;2.10;;;0.20;;
74867;SDS011;63419;42.262;12.210;2022-11-22T17:07:53;2.63;;;0.43;;
74867;SDS011;63419;42.262;12.210;2022-11-22T17:10:49;2.35;;;0.40;;
74867;SDS011;63419;42.262;12.210;2022-11-22T17:13:27;2.97;;;0.30;;
74867;SDS011;63419;42.262;12.210;2022-11-22T17:15:58;2.85;;;0.70;;
74867;SDS011;63419;42.262;12.210;2022-11-22T17:18:45;3.60;;;0.88;;
74867;SDS011;63419;42.262;12.210;2022-11-22T17:21:25;2.53;;;0.55;;
74867;SDS011;63419;42.262;12.210;2022-11-22T17:24:21;4.03;;;0.63;;
74867;SDS011;63419;42.262;12.210;2022-11-22T17:26:56;2.08;;;0.40;;
74867;SDS011;63419;42.262;12.210;2022-11-22T17:29:41;2.70;;;0.70;;
74867;SDS011;63419;42.262;12.210;2022-11-22T17:32:17;3.72;;;0.55;;
74867;SDS011;63419;42.262;12.210;2022-11-22T17:34:51;2.90;;;0.50;;
74867;SDS011;63419;42.262;12.210;2022-11-22T17:37:24;2.28;;;0.40;;
74867;SDS011;63419;42.262;12.210;2022-11-22T17:39:55;4.40;;;0.80;;
74867;SDS011;63419;42.262;12.210;2022-11-22T17:42:23;2.95;;;0.90;;
74867;SDS011;63419;42.262;12.210;2022-11-22T17:44:54;4.18;;;0.73;;
74867;SDS011;63419;42.262;12.210;2022-11-22T17:47:29;3.30;;;0.65;;
74867;SDS011;63419;42.262;12.210;2022-11-22T17:50:04;2.47;;;0.50;;
74867;SDS011;63419;42.262;12.210;2022-11-22T17:52:40;1.70;;;0.30;;
74867;SDS011;63419;42.262;12.210;2022-11-22T17:55:14;3.88;;;0.73;;
74867;SDS011;63419;42.262;12.210;2022-11-22T17:57:46;4.65;;;0.60;;
74867;SDS011;63419;42.262;12.210;2022-11-22T18:00:31;2.70;;;0.40;;
74867;SDS011;63419;42.262;12.210;2022-11-22T18:03:08;2.10;;;0.38;;
74867;SDS011;63419;42.262;12.210;2022-11-22T18:05:40;5.28;;;0.70;;
74867;SDS011;63419;42.262;12.210;2022-11-22T18:08:14;3.22;;;0.73;;
74867;SDS011;63419;42.262;12.210;2022-11-22T18:10:52;3.70;;;0.80;;
74867;SDS011;63419;42.262;12.210;2022-11-22T18:13:38;3.97;;;1.30;;
74867;SDS011;63419;42.262;12.210;2022-11-22T18:16:07;3.35;;;0.95;;
74867;SDS011;63419;42.262;12.210;2022-11-22T18:18:42;2.83;;;0.60;;
74867;SDS011;63419;42.262;12.210;2022-11-22T18:21:23;2.75;;;0.50;;
74867;SDS011;63419;42.262;12.210;2022-11-22T18:24:05;5.40;;;1.27;;
74867;SDS011;63419;42.262;12.210;2022-11-22T18:26:36;4.32;;;1.30;;
74867;SDS011;63419;42.262;12.210;2022-11-22T18:29:12;4.90;;;1.38;;
74867;SDS011;63419;42.262;12.210;2022-11-22T18:32:06;4.18;;;1.05;;
74867;SDS011;63419;42.262;12.210;2022-11-22T18:34:41;6.32;;;1.60;;
74867;SDS011;63419;42.262;12.210;2022-11-22T18:37:23;4.22;;;1.42;;
74867;SDS011;63419;42.262;12.210;2022-11-22T18:42:34;4.10;;;1.05;;
74867;SDS011;63419;42.262;12.210;2022-11-22T18:45:05;3.88;;;1.20;;
74867;SDS011;63419;42.262;12.210;2022-11-22T18:47:35;4.75;;;1.30;;
74867;SDS011;63419;42.262;12.210;2022-11-22T18:50:12;4.55;;;1.65;;
74867;SDS011;63419;42.262;12.210;2022-11-22T18:52:50;3.17;;;0.90;;
74867;SDS011;63419;42.262;12.210;2022-11-22T18:55:18;6.57;;;1.58;;
74867;SDS011;63419;42.262;12.210;2022-11-22T18:57:48;4.22;;;0.95;;
74867;SDS011;63419;42.262;12.210;2022-11-22T19:00:19;3.60;;;1.05;;
74867;SDS011;63419;42.262;12.210;2022-11-22T19:02:50;2.83;;;0.50;;
74867;SDS011;63419;42.262;12.210;2022-11-22T19:05:32;3.83;;;0.70;;
74867;SDS011;63419;42.262;12.210;2022-11-22T19:08:09;1.73;;;0.30;;
74867;SDS011;63419;42.262;12.210;2022-11-22T19:10:38;1.50;;;0.20;;
74867;SDS011;63419;42.262;12.210;2022-11-22T19:13:14;1.50;;;0.28;;
74867;SDS011;63419;42.262;12.210;2022-11-22T19:15:47;1.08;;;0.22;;
74867;SDS011;63419;42.262;12.210;2022-11-22T19:18:14;2.03;;;0.30;;